sensor_id;sensor_type;location;lat;lon;timestamp;temperature;humidity
26517;DHT22;14190;51.342;6.338;2022-07-23T00:01:17;20.10;99.90
26517;DHT22;14190;51.342;6.338;2022-07-23T00:03:46;20.20;99.90
26517;DHT22;14190;51.342;6.338;2022-07-23T00:06:15;20.20;99.90
26517;DHT22;14190;51.342;6.338;2022-07-23T00:08:44;20.20;99.90
26517;DHT22;14190;51.342;6.338;2022-07-23T00:11:13;20.10;99.90
26517;DHT22;14190;51.342;6.338;2022-07-23T00:13:42;20.00;99.90
26517;DHT22;14190;51.342;6.338;2022-07-23T00:16:10;19.90;99.90
26517;DHT22;14190;51.342;6.338;2022-07-23T00:18:39;19.80;99.90
26517;DHT22;14190;51.342;6.338;2022-07-23T00:21:08;19.80;99.90
26517;DHT22;14190;51.342;6.338;2022-07-23T00:23:37;19.80;99.90
26517;DHT22;14190;51.342;6.338;2022-07-23T00:26:05;19.70;99.90
26517;DHT22;14190;51.342;6.338;2022-07-23T00:28:35;19.70;99.90
26517;DHT22;14190;51.342;6.338;2022-07-23T00:31:04;19.80;99.90
26517;DHT22;14190;51.342;6.338;2022-07-23T00:33:32;19.80;99.90
26517;DHT22;14190;51.342;6.338;2022-07-23T00:36:01;19.70;99.90
26517;DHT22;14190;51.342;6.338;2022-07-23T00:38:30;19.70;99.90
26517;DHT22;14190;51.342;6.338;2022-07-23T00:40:59;19.70;99.90
26517;DHT22;14190;51.342;6.338;2022-07-23T00:43:27;19.70;99.90
26517;DHT22;14190;51.342;6.338;2022-07-23T00:45:56;19.80;99.90
26517;DHT22;14190;51.342;6.338;2022-07-23T00:48:25;19.80;99.90
26517;DHT22;14190;51.342;6.338;2022-07-23T00:50:53;19.80;99.90
26517;DHT22;14190;51.342;6.338;2022-07-23T00:53:22;19.70;99.90
26517;DHT22;14190;51.342;6.338;2022-07-23T00:55:51;19.70;99.90
26517;DHT22;14190;51.342;6.338;2022-07-23T00:58:20;19.60;99.90
26517;DHT22;14190;51.342;6.338;2022-07-23T01:00:48;19.50;99.90
26517;DHT22;14190;51.342;6.338;2022-07-23T01:03:17;19.50;99.90
26517;DHT22;14190;51.342;6.338;2022-07-23T01:05:46;19.50;99.90
26517;DHT22;14190;51.342;6.338;2022-07-23T01:08:15;19.50;99.90
26517;DHT22;14190;51.342;6.338;2022-07-23T01:10:44;19.40;99.90
26517;DHT22;14190;51.342;6.338;2022-07-23T01:13:14;19.50;99.90
26517;DHT22;14190;51.342;6.338;2022-07-23T01:15:43;19.50;99.90
26517;DHT22;14190;51.342;6.338;2022-07-23T01:18:11;19.50;99.90
26517;DHT22;14190;51.342;6.338;2022-07-23T01:20:40;19.50;99.90
26517;DHT22;14190;51.342;6.338;2022-07-23T01:23:09;19.40;99.90
26517;DHT22;14190;51.342;6.338;2022-07-23T01:25:49;19.40;99.90
26517;DHT22;14190;51.342;6.338;2022-07-23T01:28:19;19.30;99.90
26517;DHT22;14190;51.342;6.338;2022-07-23T01:30:49;19.20;99.90
26517;DHT22;14190;51.342;6.338;2022-07-23T01:33:18;19.20;99.90
26517;DHT22;14190;51.342;6.338;2022-07-23T01:35:47;19.20;99.90
26517;DHT22;14190;51.342;6.338;2022-07-23T01:38:17;19.20;99.90
26517;DHT22;14190;51.342;6.338;2022-07-23T01:40:46;19.20;99.90
26517;DHT22;14190;51.342;6.338;2022-07-23T01:43:15;19.20;99.90
26517;DHT22;14190;51.342;6.338;2022-07-23T01:45:43;19.10;99.90
26517;DHT22;14190;51.342;6.338;2022-07-23T01:48:13;19.10;99.90
26517;DHT22;14190;51.342;6.338;2022-07-23T01:50:46;19.10;99.90
26517;DHT22;14190;51.342;6.338;2022-07-23T01:53:22;19.10;99.90
26517;DHT22;14190;51.342;6.338;2022-07-23T01:55:51;19.10;99.90
26517;DHT22;14190;51.342;6.338;2022-07-23T01:58:20;19.00;99.90
26517;DHT22;14190;51.342;6.338;2022-07-23T02:00:51;19.00;99.90
26517;DHT22;14190;51.342;6.338;2022-07-23T02:03:20;19.00;99.90
26517;DHT22;14190;51.342;6.338;2022-07-23T02:05:49;18.90;99.90
26517;DHT22;14190;51.342;6.338;2022-07-23T02:08:18;18.80;99.90
26517;DHT22;14190;51.342;6.338;2022-07-23T02:10:46;18.80;99.90
26517;DHT22;14190;51.342;6.338;2022-07-23T02:13:16;18.80;99.90
26517;DHT22;14190;51.342;6.338;2022-07-23T02:15:45;18.90;99.90
26517;DHT22;14190;51.342;6.338;2022-07-23T02:18:14;18.90;99.90
26517;DHT22;14190;51.342;6.338;2022-07-23T02:20:43;18.90;99.90
26517;DHT22;14190;51.342;6.338;2022-07-23T02:23:12;18.80;99.90
26517;DHT22;14190;51.342;6.338;2022-07-23T02:25:41;18.90;99.90
26517;DHT22;14190;51.342;6.338;2022-07-23T02:28:10;18.80;99.90
26517;DHT22;14190;51.342;6.338;2022-07-23T02:30:41;18.90;99.90
26517;DHT22;14190;51.342;6.338;2022-07-23T02:33:10;18.90;99.90
26517;DHT22;14190;51.342;6.338;2022-07-23T02:35:40;18.90;99.90
26517;DHT22;14190;51.342;6.338;2022-07-23T02:38:08;18.80;99.90
26517;DHT22;14190;51.342;6.338;2022-07-23T02:40:38;18.70;99.90
26517;DHT22;14190;51.342;6.338;2022-07-23T02:43:07;18.70;99.90
26517;DHT22;14190;51.342;6.338;2022-07-23T02:45:36;18.70;99.90
26517;DHT22;14190;51.342;6.338;2022-07-23T02:48:04;18.70;99.90
26517;DHT22;14190;51.342;6.338;2022-07-23T02:50:33;18.70;99.90
26517;DHT22;14190;51.342;6.338;2022-07-23T02:53:02;18.70;99.90
26517;DHT22;14190;51.342;6.338;2022-07-23T02:55:31;18.70;99.90
26517;DHT22;14190;51.342;6.338;2022-07-23T02:58:01;18.70;99.90
26517;DHT22;14190;51.342;6.338;2022-07-23T03:00:30;18.70;99.90
26517;DHT22;14190;51.342;6.338;2022-07-23T03:03:00;18.70;99.90
26517;DHT22;14190;51.342;6.338;2022-07-23T03:05:29;18.70;99.90
26517;DHT22;14190;51.342;6.338;2022-07-23T03:07:57;18.60;99.90
26517;DHT22;14190;51.342;6.338;2022-07-23T03:10:26;18.50;99.90
26517;DHT22;14190;51.342;6.338;2022-07-23T03:12:55;18.50;99.90
26517;DHT22;14190;51.342;6.338;2022-07-23T03:15:24;18.40;99.90
26517;DHT22;14190;51.342;6.338;2022-07-23T03:17:52;18.40;99.90
26517;DHT22;14190;51.342;6.338;2022-07-23T03:20:21;18.40;99.90
26517;DHT22;14190;51.342;6.338;2022-07-23T03:22:50;18.40;99.90
26517;DHT22;14190;51.342;6.338;2022-07-23T03:25:19;18.40;99.90
26517;DHT22;14190;51.342;6.338;2022-07-23T03:27:48;18.40;99.90
26517;DHT22;14190;51.342;6.338;2022-07-23T03:30:17;18.30;99.90
26517;DHT22;14190;51.342;6.338;2022-07-23T03:32:45;18.20;99.90
26517;DHT22;14190;51.342;6.338;2022-07-23T03:35:14;18.20;99.90
26517;DHT22;14190;51.342;6.338;2022-07-23T03:37:45;18.20;99.90
26517;DHT22;14190;51.342;6.338;2022-07-23T03:40:14;18.20;99.90
26517;DHT22;14190;51.342;6.338;2022-07-23T03:42:42;18.20;99.90
26517;DHT22;14190;51.342;6.338;2022-07-23T03:45:11;18.20;99.90
26517;DHT22;14190;51.342;6.338;2022-07-23T03:47:40;18.20;99.90
26517;DHT22;14190;51.342;6.338;2022-07-23T03:50:09;18.10;99.90
26517;DHT22;14190;51.342;6.338;2022-07-23T03:52:37;18.00;99.90
26517;DHT22;14190;51.342;6.338;2022-07-23T03:55:06;17.90;99.90
26517;DHT22;14190;51.342;6.338;2022-07-23T03:57:36;17.90;99.90
26517;DHT22;14190;51.342;6.338;2022-07-23T04:00:05;17.90;99.90
26517;DHT22;14190;51.342;6.338;2022-07-23T04:02:37;17.90;99.90
26517;DHT22;14190;51.342;6.338;2022-07-23T04:05:07;17.90;99.90
26517;DHT22;14190;51.342;6.338;2022-07-23T04:07:35;17.90;99.90
26517;DHT22;14190;51.342;6.338;2022-07-23T04:10:05;17.90;99.90
26517;DHT22;14190;51.342;6.338;2022-07-23T04:12:33;17.90;99.90
26517;DHT22;14190;51.342;6.338;2022-07-23T04:15:04;17.90;99.90
26517;DHT22;14190;51.342;6.338;2022-07-23T04:17:33;17.90;99.90
26517;DHT22;14190;51.342;6.338;2022-07-23T04:20:02;17.80;99.90
26517;DHT22;14190;51.342;6.338;2022-07-23T04:22:32;17.70;99.90
26517;DHT22;14190;51.342;6.338;2022-07-23T04:25:01;17.70;99.90
26517;DHT22;14190;51.342;6.338;2022-07-23T04:27:30;17.60;99.90
26517;DHT22;14190;51.342;6.338;2022-07-23T04:30:00;17.60;99.90
26517;DHT22;14190;51.342;6.338;2022-07-23T04:32:31;17.50;99.90
26517;DHT22;14190;51.342;6.338;2022-07-23T04:35:01;17.50;99.90
26517;DHT22;14190;51.342;6.338;2022-07-23T04:37:30;17.60;99.90
26517;DHT22;14190;51.342;6.338;2022-07-23T04:39:59;17.60;99.90
26517;DHT22;14190;51.342;6.338;2022-07-23T04:42:27;17.70;99.90
26517;DHT22;14190;51.342;6.338;2022-07-23T04:44:56;17.70;99.90
26517;DHT22;14190;51.342;6.338;2022-07-23T04:47:25;17.80;99.90
26517;DHT22;14190;51.342;6.338;2022-07-23T04:49:54;17.80;99.90
26517;DHT22;14190;51.342;6.338;2022-07-23T04:52:22;17.90;99.90
26517;DHT22;14190;51.342;6.338;2022-07-23T04:54:52;18.00;99.90
26517;DHT22;14190;51.342;6.338;2022-07-23T04:57:20;18.00;99.90
26517;DHT22;14190;51.342;6.338;2022-07-23T04:59:49;18.10;99.90
26517;DHT22;14190;51.342;6.338;2022-07-23T05:02:18;18.20;99.90
26517;DHT22;14190;51.342;6.338;2022-07-23T05:04:46;18.20;99.90
26517;DHT22;14190;51.342;6.338;2022-07-23T05:07:15;18.20;99.90
26517;DHT22;14190;51.342;6.338;2022-07-23T05:09:44;18.20;99.90
26517;DHT22;14190;51.342;6.338;2022-07-23T05:12:13;18.10;99.90
26517;DHT22;14190;51.342;6.338;2022-07-23T05:14:42;18.20;99.90
26517;DHT22;14190;51.342;6.338;2022-07-23T05:17:11;18.20;99.90
26517;DHT22;14190;51.342;6.338;2022-07-23T05:19:40;18.20;99.90
26517;DHT22;14190;51.342;6.338;2022-07-23T05:22:08;18.30;99.90
26517;DHT22;14190;51.342;6.338;2022-07-23T05:24:37;18.30;99.90
26517;DHT22;14190;51.342;6.338;2022-07-23T05:27:07;18.40;99.90
26517;DHT22;14190;51.342;6.338;2022-07-23T05:29:36;18.50;99.90
26517;DHT22;14190;51.342;6.338;2022-07-23T05:32:05;18.40;99.90
26517;DHT22;14190;51.342;6.338;2022-07-23T05:34:34;18.30;99.90
26517;DHT22;14190;51.342;6.338;2022-07-23T05:37:03;18.20;99.90
26517;DHT22;14190;51.342;6.338;2022-07-23T05:39:32;18.30;99.90
26517;DHT22;14190;51.342;6.338;2022-07-23T05:42:01;18.40;99.90
26517;DHT22;14190;51.342;6.338;2022-07-23T05:44:29;18.40;99.90
26517;DHT22;14190;51.342;6.338;2022-07-23T05:46:58;18.40;99.90
26517;DHT22;14190;51.342;6.338;2022-07-23T05:49:27;18.50;99.90
26517;DHT22;14190;51.342;6.338;2022-07-23T05:52:03;18.50;99.90
26517;DHT22;14190;51.342;6.338;2022-07-23T05:54:35;18.40;99.90
26517;DHT22;14190;51.342;6.338;2022-07-23T05:57:04;18.50;99.90
26517;DHT22;14190;51.342;6.338;2022-07-23T05:59:32;18.60;99.90
26517;DHT22;14190;51.342;6.338;2022-07-23T06:02:01;18.70;99.90
26517;DHT22;14190;51.342;6.338;2022-07-23T06:04:30;18.70;99.90
26517;DHT22;14190;51.342;6.338;2022-07-23T06:07:09;18.80;99.90
26517;DHT22;14190;51.342;6.338;2022-07-23T06:09:38;18.90;99.90
26517;DHT22;14190;51.342;6.338;2022-07-23T06:12:07;18.90;99.90
26517;DHT22;14190;51.342;6.338;2022-07-23T06:14:36;18.90;99.90
26517;DHT22;14190;51.342;6.338;2022-07-23T06:17:04;18.90;99.90
26517;DHT22;14190;51.342;6.338;2022-07-23T06:19:33;19.00;99.90
26517;DHT22;14190;51.342;6.338;2022-07-23T06:22:02;19.20;99.90
26517;DHT22;14190;51.342;6.338;2022-07-23T06:24:31;19.30;99.90
26517;DHT22;14190;51.342;6.338;2022-07-23T06:26:59;19.60;99.90
26517;DHT22;14190;51.342;6.338;2022-07-23T06:29:28;19.90;99.90
26517;DHT22;14190;51.342;6.338;2022-07-23T06:31:57;20.10;99.90
26517;DHT22;14190;51.342;6.338;2022-07-23T06:34:25;20.40;99.90
26517;DHT22;14190;51.342;6.338;2022-07-23T06:36:56;20.60;99.90
26517;DHT22;14190;51.342;6.338;2022-07-23T06:39:26;20.80;99.90
26517;DHT22;14190;51.342;6.338;2022-07-23T06:41:55;20.90;99.90
26517;DHT22;14190;51.342;6.338;2022-07-23T06:44:25;21.10;99.90
26517;DHT22;14190;51.342;6.338;2022-07-23T06:46:56;21.40;99.90
26517;DHT22;14190;51.342;6.338;2022-07-23T06:49:24;21.60;99.90
26517;DHT22;14190;51.342;6.338;2022-07-23T06:51:53;21.80;99.90
26517;DHT22;14190;51.342;6.338;2022-07-23T06:54:22;22.00;99.90
26517;DHT22;14190;51.342;6.338;2022-07-23T06:56:51;21.90;99.90
26517;DHT22;14190;51.342;6.338;2022-07-23T06:59:20;22.00;99.90
26517;DHT22;14190;51.342;6.338;2022-07-23T07:01:48;22.10;99.90
26517;DHT22;14190;51.342;6.338;2022-07-23T07:04:17;22.20;99.90
26517;DHT22;14190;51.342;6.338;2022-07-23T07:06:46;22.30;99.90
26517;DHT22;14190;51.342;6.338;2022-07-23T07:09:14;22.40;99.90
26517;DHT22;14190;51.342;6.338;2022-07-23T07:11:43;22.50;99.90
26517;DHT22;14190;51.342;6.338;2022-07-23T07:14:12;22.50;99.90
26517;DHT22;14190;51.342;6.338;2022-07-23T07:16:41;22.70;99.90
26517;DHT22;14190;51.342;6.338;2022-07-23T07:19:10;22.80;99.90
26517;DHT22;14190;51.342;6.338;2022-07-23T07:21:39;22.80;99.90
26517;DHT22;14190;51.342;6.338;2022-07-23T07:24:08;23.00;99.90
26517;DHT22;14190;51.342;6.338;2022-07-23T07:26:36;23.20;99.90
26517;DHT22;14190;51.342;6.338;2022-07-23T07:29:07;23.30;99.90
26517;DHT22;14190;51.342;6.338;2022-07-23T07:31:35;23.30;99.90
26517;DHT22;14190;51.342;6.338;2022-07-23T07:34:04;23.50;99.90
26517;DHT22;14190;51.342;6.338;2022-07-23T07:36:33;23.70;99.90
26517;DHT22;14190;51.342;6.338;2022-07-23T07:39:03;23.90;99.90
26517;DHT22;14190;51.342;6.338;2022-07-23T07:41:32;23.80;99.90
26517;DHT22;14190;51.342;6.338;2022-07-23T07:44:01;24.00;99.90
26517;DHT22;14190;51.342;6.338;2022-07-23T07:46:29;24.20;99.90
26517;DHT22;14190;51.342;6.338;2022-07-23T07:48:58;24.30;99.90
26517;DHT22;14190;51.342;6.338;2022-07-23T07:51:27;24.40;99.90
26517;DHT22;14190;51.342;6.338;2022-07-23T07:53:56;24.60;99.90
26517;DHT22;14190;51.342;6.338;2022-07-23T07:56:25;24.60;99.90
26517;DHT22;14190;51.342;6.338;2022-07-23T07:58:53;24.70;99.90
26517;DHT22;14190;51.342;6.338;2022-07-23T08:01:22;24.80;99.90
26517;DHT22;14190;51.342;6.338;2022-07-23T08:03:51;25.00;99.90
26517;DHT22;14190;51.342;6.338;2022-07-23T08:06:20;25.20;99.90
26517;DHT22;14190;51.342;6.338;2022-07-23T08:08:48;25.20;99.90
26517;DHT22;14190;51.342;6.338;2022-07-23T08:11:17;25.40;99.90
26517;DHT22;14190;51.342;6.338;2022-07-23T08:13:46;25.30;99.90
26517;DHT22;14190;51.342;6.338;2022-07-23T08:16:15;25.20;99.90
26517;DHT22;14190;51.342;6.338;2022-07-23T08:18:43;25.20;99.90
26517;DHT22;14190;51.342;6.338;2022-07-23T08:21:12;25.30;99.90
26517;DHT22;14190;51.342;6.338;2022-07-23T08:23:41;25.30;99.90
26517;DHT22;14190;51.342;6.338;2022-07-23T08:26:09;25.10;99.90
26517;DHT22;14190;51.342;6.338;2022-07-23T08:28:38;25.20;99.90
26517;DHT22;14190;51.342;6.338;2022-07-23T08:31:07;25.50;99.90
26517;DHT22;14190;51.342;6.338;2022-07-23T08:33:36;25.50;99.90
26517;DHT22;14190;51.342;6.338;2022-07-23T08:36:05;25.40;99.90
26517;DHT22;14190;51.342;6.338;2022-07-23T08:38:33;25.50;99.90
26517;DHT22;14190;51.342;6.338;2022-07-23T08:41:03;25.60;99.90
26517;DHT22;14190;51.342;6.338;2022-07-23T08:43:32;25.70;99.90
26517;DHT22;14190;51.342;6.338;2022-07-23T08:46:03;25.80;99.90
26517;DHT22;14190;51.342;6.338;2022-07-23T08:48:33;25.80;99.90
26517;DHT22;14190;51.342;6.338;2022-07-23T08:51:02;25.80;99.90
26517;DHT22;14190;51.342;6.338;2022-07-23T08:53:32;25.70;99.90
26517;DHT22;14190;51.342;6.338;2022-07-23T08:56:03;25.60;99.90
26517;DHT22;14190;51.342;6.338;2022-07-23T08:58:32;25.80;99.90
26517;DHT22;14190;51.342;6.338;2022-07-23T09:01:01;25.90;99.90
26517;DHT22;14190;51.342;6.338;2022-07-23T09:03:32;26.00;99.90
26517;DHT22;14190;51.342;6.338;2022-07-23T09:06:00;26.10;99.90
26517;DHT22;14190;51.342;6.338;2022-07-23T09:08:35;26.20;99.90
26517;DHT22;14190;51.342;6.338;2022-07-23T09:11:05;26.10;99.90
26517;DHT22;14190;51.342;6.338;2022-07-23T09:13:40;26.20;99.90
26517;DHT22;14190;51.342;6.338;2022-07-23T09:16:12;26.40;99.90
26517;DHT22;14190;51.342;6.338;2022-07-23T09:18:47;26.50;99.90
26517;DHT22;14190;51.342;6.338;2022-07-23T09:21:18;26.80;99.90
26517;DHT22;14190;51.342;6.338;2022-07-23T09:23:48;26.90;99.90
26517;DHT22;14190;51.342;6.338;2022-07-23T09:26:18;26.90;99.90
26517;DHT22;14190;51.342;6.338;2022-07-23T09:28:51;26.80;99.90
26517;DHT22;14190;51.342;6.338;2022-07-23T09:31:21;26.40;99.90
26517;DHT22;14190;51.342;6.338;2022-07-23T09:33:50;26.10;99.90
26517;DHT22;14190;51.342;6.338;2022-07-23T09:36:31;26.20;99.90
26517;DHT22;14190;51.342;6.338;2022-07-23T09:38:56;26.40;99.90
26517;DHT22;14190;51.342;6.338;2022-07-23T09:41:25;26.60;99.90
26517;DHT22;14190;51.342;6.338;2022-07-23T09:43:55;26.80;99.90
26517;DHT22;14190;51.342;6.338;2022-07-23T09:46:29;26.80;99.90
26517;DHT22;14190;51.342;6.338;2022-07-23T09:48:55;27.00;99.90
26517;DHT22;14190;51.342;6.338;2022-07-23T09:51:26;27.20;99.90
26517;DHT22;14190;51.342;6.338;2022-07-23T09:53:57;27.20;99.90
26517;DHT22;14190;51.342;6.338;2022-07-23T09:56:27;26.60;99.90
26517;DHT22;14190;51.342;6.338;2022-07-23T09:58:56;26.50;99.90
26517;DHT22;14190;51.342;6.338;2022-07-23T10:01:32;26.40;99.90
26517;DHT22;14190;51.342;6.338;2022-07-23T10:04:01;26.30;99.90
26517;DHT22;14190;51.342;6.338;2022-07-23T10:06:33;26.60;99.90
26517;DHT22;14190;51.342;6.338;2022-07-23T10:09:36;26.70;99.90
26517;DHT22;14190;51.342;6.338;2022-07-23T10:12:23;26.80;99.90
26517;DHT22;14190;51.342;6.338;2022-07-23T10:15:06;27.20;99.90
26517;DHT22;14190;51.342;6.338;2022-07-23T10:17:35;27.50;99.90
26517;DHT22;14190;51.342;6.338;2022-07-23T10:20:04;27.60;99.90
26517;DHT22;14190;51.342;6.338;2022-07-23T10:22:35;27.80;99.90
26517;DHT22;14190;51.342;6.338;2022-07-23T10:35:58;26.70;99.90
26517;DHT22;14190;51.342;6.338;2022-07-23T10:38:30;26.80;99.90
26517;DHT22;14190;51.342;6.338;2022-07-23T10:41:01;26.70;99.90
26517;DHT22;14190;51.342;6.338;2022-07-23T10:43:31;27.00;99.90
26517;DHT22;14190;51.342;6.338;2022-07-23T10:48:46;27.40;99.90
26517;DHT22;14190;51.342;6.338;2022-07-23T10:51:17;27.50;99.90
26517;DHT22;14190;51.342;6.338;2022-07-23T10:59:08;27.80;99.70
26517;DHT22;14190;51.342;6.338;2022-07-23T11:01:37;27.90;99.50
26517;DHT22;14190;51.342;6.338;2022-07-23T11:04:07;27.70;98.70
26517;DHT22;14190;51.342;6.338;2022-07-23T11:17:37;26.90;99.90
26517;DHT22;14190;51.342;6.338;2022-07-23T11:25:28;27.20;99.90
26517;DHT22;14190;51.342;6.338;2022-07-23T11:27:45;27.30;99.90
26517;DHT22;14190;51.342;6.338;2022-07-23T11:35:44;27.40;99.90
26517;DHT22;14190;51.342;6.338;2022-07-23T11:40:44;27.90;99.80
26517;DHT22;14190;51.342;6.338;2022-07-23T11:43:14;27.90;99.70
26517;DHT22;14190;51.342;6.338;2022-07-23T11:45:44;27.80;99.80
26517;DHT22;14190;51.342;6.338;2022-07-23T11:48:21;27.90;99.90
26517;DHT22;14190;51.342;6.338;2022-07-23T11:50:50;28.00;98.50
26517;DHT22;14190;51.342;6.338;2022-07-23T11:53:32;28.00;98.70
26517;DHT22;14190;51.342;6.338;2022-07-23T11:56:08;28.10;98.80
26517;DHT22;14190;51.342;6.338;2022-07-23T11:58:33;28.20;98.90
26517;DHT22;14190;51.342;6.338;2022-07-23T12:01:02;28.10;98.90
26517;DHT22;14190;51.342;6.338;2022-07-23T12:03:31;28.10;98.60
26517;DHT22;14190;51.342;6.338;2022-07-23T12:06:00;28.30;98.20
26517;DHT22;14190;51.342;6.338;2022-07-23T12:08:29;28.20;98.50
26517;DHT22;14190;51.342;6.338;2022-07-23T12:10:57;28.20;99.10
26517;DHT22;14190;51.342;6.338;2022-07-23T12:13:26;28.40;98.70
26517;DHT22;14190;51.342;6.338;2022-07-23T12:15:56;28.40;97.80
26517;DHT22;14190;51.342;6.338;2022-07-23T12:18:26;28.30;98.10
26517;DHT22;14190;51.342;6.338;2022-07-23T12:21:02;28.30;98.80
26517;DHT22;14190;51.342;6.338;2022-07-23T12:23:29;28.30;97.70
26517;DHT22;14190;51.342;6.338;2022-07-23T12:26:00;28.30;97.50
26517;DHT22;14190;51.342;6.338;2022-07-23T12:28:29;28.40;98.20
26517;DHT22;14190;51.342;6.338;2022-07-23T12:30:58;28.30;98.00
26517;DHT22;14190;51.342;6.338;2022-07-23T12:33:31;28.30;97.70
26517;DHT22;14190;51.342;6.338;2022-07-23T12:36:02;28.40;98.10
26517;DHT22;14190;51.342;6.338;2022-07-23T12:38:38;28.40;98.80
26517;DHT22;14190;51.342;6.338;2022-07-23T12:41:07;28.50;99.10
26517;DHT22;14190;51.342;6.338;2022-07-23T12:43:36;28.60;98.70
26517;DHT22;14190;51.342;6.338;2022-07-23T12:46:07;28.50;98.30
26517;DHT22;14190;51.342;6.338;2022-07-23T12:48:39;28.50;97.60
26517;DHT22;14190;51.342;6.338;2022-07-23T12:51:09;28.50;97.30
26517;DHT22;14190;51.342;6.338;2022-07-23T12:53:39;28.50;97.80
26517;DHT22;14190;51.342;6.338;2022-07-23T12:56:09;28.60;97.60
26517;DHT22;14190;51.342;6.338;2022-07-23T12:58:49;28.50;98.10
26517;DHT22;14190;51.342;6.338;2022-07-23T13:04:00;28.30;97.30
26517;DHT22;14190;51.342;6.338;2022-07-23T13:06:30;28.30;97.50
26517;DHT22;14190;51.342;6.338;2022-07-23T13:08:59;28.30;97.60
26517;DHT22;14190;51.342;6.338;2022-07-23T13:11:29;28.30;97.70
26517;DHT22;14190;51.342;6.338;2022-07-23T13:13:58;28.20;98.50
26517;DHT22;14190;51.342;6.338;2022-07-23T13:16:28;28.30;98.40
26517;DHT22;14190;51.342;6.338;2022-07-23T13:18:57;28.40;97.80
26517;DHT22;14190;51.342;6.338;2022-07-23T13:21:27;28.40;97.10
26517;DHT22;14190;51.342;6.338;2022-07-23T13:23:56;28.30;97.70
26517;DHT22;14190;51.342;6.338;2022-07-23T13:26:25;28.30;97.60
26517;DHT22;14190;51.342;6.338;2022-07-23T13:28:54;28.40;97.20
26517;DHT22;14190;51.342;6.338;2022-07-23T13:31:23;28.50;97.50
26517;DHT22;14190;51.342;6.338;2022-07-23T13:33:51;28.70;97.30
26517;DHT22;14190;51.342;6.338;2022-07-23T13:36:20;28.80;96.60
26517;DHT22;14190;51.342;6.338;2022-07-23T13:38:49;28.90;96.60
26517;DHT22;14190;51.342;6.338;2022-07-23T13:41:18;28.90;96.60
26517;DHT22;14190;51.342;6.338;2022-07-23T13:43:47;28.60;96.80
26517;DHT22;14190;51.342;6.338;2022-07-23T13:46:15;28.40;97.90
26517;DHT22;14190;51.342;6.338;2022-07-23T13:48:44;28.10;97.20
26517;DHT22;14190;51.342;6.338;2022-07-23T13:51:13;28.00;97.80
26517;DHT22;14190;51.342;6.338;2022-07-23T13:53:43;28.10;97.30
26517;DHT22;14190;51.342;6.338;2022-07-23T13:56:11;28.10;97.20
26517;DHT22;14190;51.342;6.338;2022-07-23T13:58:40;28.00;96.60
26517;DHT22;14190;51.342;6.338;2022-07-23T14:01:09;27.90;97.00
26517;DHT22;14190;51.342;6.338;2022-07-23T14:03:38;27.90;96.80
26517;DHT22;14190;51.342;6.338;2022-07-23T14:06:07;27.90;97.00
26517;DHT22;14190;51.342;6.338;2022-07-23T14:08:35;28.00;97.30
26517;DHT22;14190;51.342;6.338;2022-07-23T14:11:04;28.20;96.80
26517;DHT22;14190;51.342;6.338;2022-07-23T14:13:33;28.50;97.30
26517;DHT22;14190;51.342;6.338;2022-07-23T14:16:02;28.60;96.50
26517;DHT22;14190;51.342;6.338;2022-07-23T14:18:30;28.50;97.00
26517;DHT22;14190;51.342;6.338;2022-07-23T14:20:59;28.60;96.90
26517;DHT22;14190;51.342;6.338;2022-07-23T14:23:28;28.60;96.60
26517;DHT22;14190;51.342;6.338;2022-07-23T14:25:57;28.80;96.00
26517;DHT22;14190;51.342;6.338;2022-07-23T14:28:25;28.80;95.90
26517;DHT22;14190;51.342;6.338;2022-07-23T14:30:54;28.80;95.90
26517;DHT22;14190;51.342;6.338;2022-07-23T14:33:23;28.80;95.40
26517;DHT22;14190;51.342;6.338;2022-07-23T14:35:52;28.70;95.90
26517;DHT22;14190;51.342;6.338;2022-07-23T14:38:20;28.80;96.40
26517;DHT22;14190;51.342;6.338;2022-07-23T14:40:49;28.80;96.70
26517;DHT22;14190;51.342;6.338;2022-07-23T14:43:18;28.80;96.60
26517;DHT22;14190;51.342;6.338;2022-07-23T14:45:46;28.90;95.70
26517;DHT22;14190;51.342;6.338;2022-07-23T14:48:15;28.90;95.80
26517;DHT22;14190;51.342;6.338;2022-07-23T14:50:44;28.90;97.30
26517;DHT22;14190;51.342;6.338;2022-07-23T14:53:12;29.00;97.40
26517;DHT22;14190;51.342;6.338;2022-07-23T14:55:41;29.00;96.50
26517;DHT22;14190;51.342;6.338;2022-07-23T14:58:10;29.10;96.50
26517;DHT22;14190;51.342;6.338;2022-07-23T15:00:39;29.20;96.80
26517;DHT22;14190;51.342;6.338;2022-07-23T15:03:07;29.20;95.40
26517;DHT22;14190;51.342;6.338;2022-07-23T15:05:36;29.20;96.40
26517;DHT22;14190;51.342;6.338;2022-07-23T15:08:05;29.20;95.70
26517;DHT22;14190;51.342;6.338;2022-07-23T15:10:33;29.10;95.20
26517;DHT22;14190;51.342;6.338;2022-07-23T15:13:02;29.10;96.70
26517;DHT22;14190;51.342;6.338;2022-07-23T15:15:31;28.90;96.30
26517;DHT22;14190;51.342;6.338;2022-07-23T15:18:00;28.90;96.10
26517;DHT22;14190;51.342;6.338;2022-07-23T15:20:28;28.80;96.50
26517;DHT22;14190;51.342;6.338;2022-07-23T15:22:59;28.60;96.20
26517;DHT22;14190;51.342;6.338;2022-07-23T15:25:27;28.60;96.40
26517;DHT22;14190;51.342;6.338;2022-07-23T15:27:59;28.70;96.60
26517;DHT22;14190;51.342;6.338;2022-07-23T15:30:28;28.70;96.60
26517;DHT22;14190;51.342;6.338;2022-07-23T15:32:56;28.80;96.20
26517;DHT22;14190;51.342;6.338;2022-07-23T15:35:25;28.60;95.50
26517;DHT22;14190;51.342;6.338;2022-07-23T15:37:54;28.40;95.50
26517;DHT22;14190;51.342;6.338;2022-07-23T15:40:23;28.30;95.70
26517;DHT22;14190;51.342;6.338;2022-07-23T15:42:51;28.30;95.90
26517;DHT22;14190;51.342;6.338;2022-07-23T15:45:20;28.30;96.10
26517;DHT22;14190;51.342;6.338;2022-07-23T15:47:49;28.30;96.30
26517;DHT22;14190;51.342;6.338;2022-07-23T15:50:18;28.40;96.40
26517;DHT22;14190;51.342;6.338;2022-07-23T15:52:47;28.50;96.70
26517;DHT22;14190;51.342;6.338;2022-07-23T15:55:15;28.50;96.80
26517;DHT22;14190;51.342;6.338;2022-07-23T15:57:44;28.40;96.50
26517;DHT22;14190;51.342;6.338;2022-07-23T16:00:13;28.30;96.50
26517;DHT22;14190;51.342;6.338;2022-07-23T16:02:41;28.30;96.10
26517;DHT22;14190;51.342;6.338;2022-07-23T16:05:10;28.40;96.40
26517;DHT22;14190;51.342;6.338;2022-07-23T16:07:39;28.40;96.80
26517;DHT22;14190;51.342;6.338;2022-07-23T16:10:08;28.40;96.70
26517;DHT22;14190;51.342;6.338;2022-07-23T16:12:38;28.30;95.80
26517;DHT22;14190;51.342;6.338;2022-07-23T16:15:07;28.20;96.10
26517;DHT22;14190;51.342;6.338;2022-07-23T16:17:36;28.10;95.80
26517;DHT22;14190;51.342;6.338;2022-07-23T16:20:05;28.10;95.90
26517;DHT22;14190;51.342;6.338;2022-07-23T16:22:35;28.10;96.50
26517;DHT22;14190;51.342;6.338;2022-07-23T16:25:04;28.10;96.80
26517;DHT22;14190;51.342;6.338;2022-07-23T16:27:36;28.00;96.60
26517;DHT22;14190;51.342;6.338;2022-07-23T16:30:04;27.90;96.50